sensor_id;sensor_type;location;lat;lon;timestamp;pressure;altitude;pressure_sealevel;temperature;humidity
80568;BME280;69922;45.656;25.586;2023-12-14T00:00:12;93713.21;;;12.75;56.05
80568;BME280;69922;45.656;25.586;2023-12-14T00:58:04;93693.77;;;12.95;54.89
80568;BME280;69922;45.656;25.586;2023-12-14T00:59:17;93695.23;;;13.01;55.11
80568;BME280;69922;45.656;25.586;2023-12-14T01:00:24;93708.23;;;13.00;55.07
80568;BME280;69922;45.656;25.586;2023-12-14T01:01:31;93711.00;;;13.00;55.04
80568;BME280;69922;45.656;25.586;2023-12-14T01:02:38;93713.80;;;13.00;55.12
80568;BME280;69922;45.656;25.586;2023-12-14T01:03:44;93719.36;;;13.00;54.93
80568;BME280;69922;45.656;25.586;2023-12-14T01:04:51;93720.25;;;13.02;54.98
80568;BME280;69922;45.656;25.586;2023-12-14T01:05:58;93723.80;;;13.05;54.95
80568;BME280;69922;45.656;25.586;2023-12-14T01:07:05;93711.88;;;13.03;54.91
80568;BME280;69922;45.656;25.586;2023-12-14T01:08:12;93719.13;;;13.05;55.01
80568;BME280;69922;45.656;25.586;2023-12-14T01:09:18;93714.44;;;13.07;54.99
80568;BME280;69922;45.656;25.586;2023-12-14T01:10:25;93705.29;;;13.08;55.06
80568;BME280;69922;45.656;25.586;2023-12-14T01:11:31;93716.64;;;13.07;55.08
80568;BME280;69922;45.656;25.586;2023-12-14T01:12:38;93713.90;;;13.08;55.11
80568;BME280;69922;45.656;25.586;2023-12-14T01:13:44;93717.19;;;13.08;55.28
80568;BME280;69922;45.656;25.586;2023-12-14T01:14:51;93714.91;;;13.07;55.30
80568;BME280;69922;45.656;25.586;2023-12-14T01:15:57;93717.39;;;13.05;55.37
80568;BME280;69922;45.656;25.586;2023-12-14T01:17:04;93716.24;;;13.01;55.48
80568;BME280;69922;45.656;25.586;2023-12-14T01:18:11;93722.63;;;13.00;55.61
80568;BME280;69922;45.656;25.586;2023-12-14T01:19:19;93716.08;;;12.97;55.50
80568;BME280;69922;45.656;25.586;2023-12-14T01:20:25;93715.69;;;12.96;55.55
80568;BME280;69922;45.656;25.586;2023-12-14T01:21:32;93710.27;;;12.95;55.74
80568;BME280;69922;45.656;25.586;2023-12-14T01:22:39;93705.77;;;12.93;55.75
80568;BME280;69922;45.656;25.586;2023-12-14T01:23:46;93702.70;;;12.91;55.84
80568;BME280;69922;45.656;25.586;2023-12-14T01:24:53;93692.95;;;12.88;55.83
80568;BME280;69922;45.656;25.586;2023-12-14T01:25:59;93699.29;;;12.86;55.90
80568;BME280;69922;45.656;25.586;2023-12-14T01:27:06;93689.58;;;12.86;56.01
80568;BME280;69922;45.656;25.586;2023-12-14T01:28:16;93685.80;;;12.84;56.13
80568;BME280;69922;45.656;25.586;2023-12-14T01:29:22;93692.17;;;12.82;55.94
80568;BME280;69922;45.656;25.586;2023-12-14T01:30:29;93684.11;;;12.82;56.09
80568;BME280;69922;45.656;25.586;2023-12-14T01:31:35;93686.44;;;12.80;56.05
80568;BME280;69922;45.656;25.586;2023-12-14T01:32:43;93684.02;;;12.80;56.21
80568;BME280;69922;45.656;25.586;2023-12-14T01:33:49;93673.05;;;12.78;56.24
80568;BME280;69922;45.656;25.586;2023-12-14T01:34:56;93668.66;;;12.78;56.22
80568;BME280;69922;45.656;25.586;2023-12-14T01:36:05;93676.63;;;12.77;56.33
80568;BME280;69922;45.656;25.586;2023-12-14T01:37:11;93664.56;;;12.76;56.25
80568;BME280;69922;45.656;25.586;2023-12-14T01:38:18;93670.91;;;12.77;56.29
80568;BME280;69922;45.656;25.586;2023-12-14T01:39:24;93662.30;;;12.76;56.34
80568;BME280;69922;45.656;25.586;2023-12-14T01:40:31;93650.57;;;12.77;56.33
80568;BME280;69922;45.656;25.586;2023-12-14T01:41:38;93657.23;;;12.79;56.43
80568;BME280;69922;45.656;25.586;2023-12-14T01:42:44;93658.88;;;12.78;56.32
80568;BME280;69922;45.656;25.586;2023-12-14T01:43:51;93665.85;;;12.79;56.42
80568;BME280;69922;45.656;25.586;2023-12-14T01:44:58;93659.83;;;12.79;56.33
80568;BME280;69922;45.656;25.586;2023-12-14T01:46:05;93658.58;;;12.78;56.36
80568;BME280;69922;45.656;25.586;2023-12-14T01:47:12;93649.11;;;12.80;56.17
80568;BME280;69922;45.656;25.586;2023-12-14T01:48:19;93649.77;;;12.82;56.26
80568;BME280;69922;45.656;25.586;2023-12-14T01:49:26;93650.27;;;12.84;56.12
80568;BME280;69922;45.656;25.586;2023-12-14T01:50:33;93653.64;;;12.85;56.01
80568;BME280;69922;45.656;25.586;2023-12-14T01:51:39;93651.16;;;12.88;56.16
80568;BME280;69922;45.656;25.586;2023-12-14T01:52:47;93646.86;;;12.89;55.91
80568;BME280;69922;45.656;25.586;2023-12-14T01:53:53;93635.77;;;12.90;55.82
80568;BME280;69922;45.656;25.586;2023-12-14T01:55:00;93636.49;;;12.91;55.69
80568;BME280;69922;45.656;25.586;2023-12-14T01:56:09;93640.98;;;12.94;55.79
80568;BME280;69922;45.656;25.586;2023-12-14T01:57:16;93649.23;;;12.96;55.89
80568;BME280;69922;45.656;25.586;2023-12-14T01:58:23;93645.70;;;12.96;55.64
80568;BME280;69922;45.656;25.586;2023-12-14T01:59:31;93650.40;;;12.96;55.40
80568;BME280;69922;45.656;25.586;2023-12-14T02:00:41;93650.43;;;12.99;55.16
80568;BME280;69922;45.656;25.586;2023-12-14T02:01:54;93640.86;;;13.02;55.05
80568;BME280;69922;45.656;25.586;2023-12-14T02:03:03;93649.05;;;13.05;55.19
80568;BME280;69922;45.656;25.586;2023-12-14T02:04:10;93648.99;;;13.07;55.29
80568;BME280;69922;45.656;25.586;2023-12-14T02:05:18;93635.42;;;13.05;54.65
80568;BME280;69922;45.656;25.586;2023-12-14T02:06:25;93631.70;;;13.08;54.98
80568;BME280;69922;45.656;25.586;2023-12-14T02:07:31;93633.13;;;13.09;54.97
80568;BME280;69922;45.656;25.586;2023-12-14T02:08:38;93635.08;;;13.09;54.96
80568;BME280;69922;45.656;25.586;2023-12-14T02:09:45;93633.05;;;13.09;54.93
80568;BME280;69922;45.656;25.586;2023-12-14T02:10:52;93643.13;;;13.08;54.81
80568;BME280;69922;45.656;25.586;2023-12-14T02:11:58;93647.52;;;13.08;54.80
80568;BME280;69922;45.656;25.586;2023-12-14T02:13:05;93638.92;;;13.10;54.67
80568;BME280;69922;45.656;25.586;2023-12-14T02:14:12;93644.18;;;13.11;54.79
80568;BME280;69922;45.656;25.586;2023-12-14T02:15:19;93644.73;;;13.11;54.85
80568;BME280;69922;45.656;25.586;2023-12-14T02:16:26;93650.67;;;13.11;54.88
80568;BME280;69922;45.656;25.586;2023-12-14T02:17:32;93654.34;;;13.10;54.57
80568;BME280;69922;45.656;25.586;2023-12-14T02:18:40;93653.58;;;13.12;54.69
80568;BME280;69922;45.656;25.586;2023-12-14T02:19:46;93643.25;;;13.13;54.67
80568;BME280;69922;45.656;25.586;2023-12-14T02:20:53;93645.36;;;13.12;54.48
80568;BME280;69922;45.656;25.586;2023-12-14T02:22:00;93645.84;;;13.14;54.66
80568;BME280;69922;45.656;25.586;2023-12-14T02:23:06;93653.02;;;13.12;54.45
80568;BME280;69922;45.656;25.586;2023-12-14T02:24:13;93657.59;;;13.14;54.55
80568;BME280;69922;45.656;25.586;2023-12-14T02:25:20;93654.17;;;13.15;54.51
80568;BME280;69922;45.656;25.586;2023-12-14T02:26:26;93656.75;;;13.15;54.47
80568;BME280;69922;45.656;25.586;2023-12-14T02:27:33;93654.39;;;13.14;54.45
80568;BME280;69922;45.656;25.586;2023-12-14T02:28:40;93662.93;;;13.15;54.39
80568;BME280;69922;45.656;25.586;2023-12-14T02:29:46;93662.17;;;13.17;54.45
80568;BME280;69922;45.656;25.586;2023-12-14T02:30:52;93663.75;;;13.18;54.34
80568;BME280;69922;45.656;25.586;2023-12-14T02:32:00;93665.79;;;13.18;54.47
80568;BME280;69922;45.656;25.586;2023-12-14T02:33:07;93676.28;;;13.19;54.34
80568;BME280;69922;45.656;25.586;2023-12-14T02:34:14;93680.20;;;13.19;54.17
80568;BME280;69922;45.656;25.586;2023-12-14T02:35:21;93675.12;;;13.20;54.13
80568;BME280;69922;45.656;25.586;2023-12-14T02:36:28;93675.38;;;13.21;54.18
80568;BME280;69922;45.656;25.586;2023-12-14T02:37:36;93683.93;;;13.23;54.24
80568;BME280;69922;45.656;25.586;2023-12-14T02:38:49;93691.23;;;13.24;54.13
80568;BME280;69922;45.656;25.586;2023-12-14T02:39:56;93691.38;;;13.23;53.98
80568;BME280;69922;45.656;25.586;2023-12-14T02:41:02;93679.72;;;13.25;54.04
80568;BME280;69922;45.656;25.586;2023-12-14T02:42:10;93672.91;;;13.26;53.88
80568;BME280;69922;45.656;25.586;2023-12-14T02:43:16;93678.11;;;13.28;54.01
80568;BME280;69922;45.656;25.586;2023-12-14T02:44:23;93661.33;;;13.26;53.79
80568;BME280;69922;45.656;25.586;2023-12-14T02:45:30;93669.63;;;13.26;53.81
80568;BME280;69922;45.656;25.586;2023-12-14T02:46:38;93676.67;;;13.26;53.71
80568;BME280;69922;45.656;25.586;2023-12-14T02:47:45;93686.41;;;13.28;53.77
80568;BME280;69922;45.656;25.586;2023-12-14T02:48:54;93691.50;;;13.29;53.89
80568;BME280;69922;45.656;25.586;2023-12-14T02:50:00;93688.26;;;13.26;53.73
80568;BME280;69922;45.656;25.586;2023-12-14T02:51:08;93694.50;;;13.30;53.87
80568;BME280;69922;45.656;25.586;2023-12-14T02:52:18;93694.27;;;13.30;53.55
80568;BME280;69922;45.656;25.586;2023-12-14T02:53:24;93696.45;;;13.30;53.48
80568;BME280;69922;45.656;25.586;2023-12-14T02:54:31;93700.78;;;13.32;53.57
80568;BME280;69922;45.656;25.586;2023-12-14T02:55:38;93701.34;;;13.33;53.37
80568;BME280;69922;45.656;25.586;2023-12-14T02:56:45;93708.65;;;13.35;53.53
80568;BME280;69922;45.656;25.586;2023-12-14T02:57:52;93709.98;;;13.36;53.46
80568;BME280;69922;45.656;25.586;2023-12-14T02:58:59;93714.16;;;13.37;53.41
80568;BME280;69922;45.656;25.586;2023-12-14T03:00:08;93721.68;;;13.37;53.28
80568;BME280;69922;45.656;25.586;2023-12-14T03:01:14;93726.21;;;13.37;53.16
80568;BME280;69922;45.656;25.586;2023-12-14T03:02:21;93733.14;;;13.39;53.14
80568;BME280;69922;45.656;25.586;2023-12-14T03:03:29;93734.89;;;13.42;53.24
80568;BME280;69922;45.656;25.586;2023-12-14T03:04:37;93738.42;;;13.43;53.12
80568;BME280;69922;45.656;25.586;2023-12-14T03:05:43;93749.73;;;13.45;53.24
80568;BME280;69922;45.656;25.586;2023-12-14T03:06:50;93749.51;;;13.46;53.11
80568;BME280;69922;45.656;25.586;2023-12-14T03:07:57;93745.30;;;13.48;53.05
80568;BME280;69922;45.656;25.586;2023-12-14T03:09:04;93756.58;;;13.48;52.64
80568;BME280;69922;45.656;25.586;2023-12-14T03:10:11;93754.55;;;13.50;52.72
80568;BME280;69922;45.656;25.586;2023-12-14T03:11:25;93761.09;;;13.52;52.66
80568;BME280;69922;45.656;25.586;2023-12-14T03:12:32;93774.84;;;13.55;52.33
80568;BME280;69922;45.656;25.586;2023-12-14T03:13:39;93774.16;;;13.58;52.60
80568;BME280;69922;45.656;25.586;2023-12-14T03:14:45;93786.39;;;13.59;52.32
80568;BME280;69922;45.656;25.586;2023-12-14T03:15:52;93788.20;;;13.60;52.34
80568;BME280;69922;45.656;25.586;2023-12-14T03:16:58;93801.92;;;13.61;52.46
80568;BME280;69922;45.656;25.586;2023-12-14T03:18:05;93810.15;;;13.60;52.49
80568;BME280;69922;45.656;25.586;2023-12-14T03:19:12;93822.02;;;13.56;52.87
80568;BME280;69922;45.656;25.586;2023-12-14T03:20:19;93834.23;;;13.49;53.48
80568;BME280;69922;45.656;25.586;2023-12-14T03:21:26;93859.16;;;13.38;53.14
80568;BME280;69922;45.656;25.586;2023-12-14T03:22:32;93846.73;;;13.16;53.55
80568;BME280;69922;45.656;25.586;2023-12-14T03:23:39;93855.97;;;12.95;54.07
80568;BME280;69922;45.656;25.586;2023-12-14T03:24:47;93866.30;;;12.76;53.97
80568;BME280;69922;45.656;25.586;2023-12-14T03:25:54;93878.05;;;12.61;54.33
80568;BME280;69922;45.656;25.586;2023-12-14T03:27:01;93886.36;;;12.44;54.67
80568;BME280;69922;45.656;25.586;2023-12-14T03:28:07;93865.04;;;12.32;55.18
80568;BME280;69922;45.656;25.586;2023-12-14T03:29:15;93875.57;;;12.22;55.51
80568;BME280;69922;45.656;25.586;2023-12-14T03:30:22;93893.24;;;12.09;56.10
80568;BME280;69922;45.656;25.586;2023-12-14T03:31:28;93899.30;;;11.98;56.52
80568;BME280;69922;45.656;25.586;2023-12-14T03:32:35;93893.58;;;11.89;56.89
80568;BME280;69922;45.656;25.586;2023-12-14T03:33:45;93890.79;;;11.82;57.33
80568;BME280;69922;45.656;25.586;2023-12-14T03:34:52;93893.00;;;11.75;57.53
80568;BME280;69922;45.656;25.586;2023-12-14T03:35:59;93900.71;;;11.70;57.90
80568;BME280;69922;45.656;25.586;2023-12-14T03:37:05;93896.14;;;11.65;58.17
80568;BME280;69922;45.656;25.586;2023-12-14T03:38:12;93887.61;;;11.62;58.30
80568;BME280;69922;45.656;25.586;2023-12-14T03:39:19;93883.02;;;11.59;58.50
80568;BME280;69922;45.656;25.586;2023-12-14T03:40:26;93886.48;;;11.52;58.75
80568;BME280;69922;45.656;25.586;2023-12-14T03:41:33;93893.34;;;11.40;59.24
80568;BME280;69922;45.656;25.586;2023-12-14T03:42:39;93892.24;;;11.29;59.78
80568;BME280;69922;45.656;25.586;2023-12-14T03:43:46;93889.55;;;11.20;60.17
80568;BME280;69922;45.656;25.586;2023-12-14T03:44:52;93892.82;;;11.12;60.40
80568;BME280;69922;45.656;25.586;2023-12-14T03:45:59;93895.77;;;11.05;60.77
80568;BME280;69922;45.656;25.586;2023-12-14T03:47:05;93890.11;;;10.99;61.15
80568;BME280;69922;45.656;25.586;2023-12-14T03:48:12;93890.84;;;10.94;61.29
80568;BME280;69922;45.656;25.586;2023-12-14T03:49:18;93887.54;;;10.89;61.39
80568;BME280;69922;45.656;25.586;2023-12-14T03:50:25;93892.42;;;10.85;61.65
80568;BME280;69922;45.656;25.586;2023-12-14T03:51:31;93886.41;;;10.81;61.53
80568;BME280;69922;45.656;25.586;2023-12-14T03:52:38;93880.73;;;10.78;61.35
80568;BME280;69922;45.656;25.586;2023-12-14T03:53:45;93872.55;;;10.76;61.48
80568;BME280;69922;45.656;25.586;2023-12-14T03:54:51;93868.68;;;10.74;62.00
80568;BME280;69922;45.656;25.586;2023-12-14T03:55:58;93869.57;;;10.72;61.63
80568;BME280;69922;45.656;25.586;2023-12-14T03:57:05;93873.45;;;10.67;61.86
80568;BME280;69922;45.656;25.586;2023-12-14T03:58:13;93878.15;;;10.65;62.02
80568;BME280;69922;45.656;25.586;2023-12-14T03:59:19;93883.41;;;10.63;62.24
80568;BME280;69922;45.656;25.586;2023-12-14T04:00:26;93878.87;;;10.59;62.74
80568;BME280;69922;45.656;25.586;2023-12-14T04:01:33;93883.64;;;10.56;63.10
80568;BME280;69922;45.656;25.586;2023-12-14T04:02:40;93886.23;;;10.54;62.86
80568;BME280;69922;45.656;25.586;2023-12-14T04:03:47;93896.19;;;10.52;63.13
80568;BME280;69922;45.656;25.586;2023-12-14T04:04:54;93903.61;;;10.49;63.78
80568;BME280;69922;45.656;25.586;2023-12-14T04:06:01;93910.73;;;10.48;63.59
80568;BME280;69922;45.656;25.586;2023-12-14T04:07:07;93906.46;;;10.46;63.89
80568;BME280;69922;45.656;25.586;2023-12-14T04:08:14;93902.70;;;10.45;63.65
80568;BME280;69922;45.656;25.586;2023-12-14T04:09:21;93899.08;;;10.43;63.84
80568;BME280;69922;45.656;25.586;2023-12-14T04:10:27;93904.73;;;10.42;64.21
80568;BME280;69922;45.656;25.586;2023-12-14T04:11:34;93913.05;;;10.40;64.97
80568;BME280;69922;45.656;25.586;2023-12-14T04:12:41;93916.33;;;10.38;64.70
80568;BME280;69922;45.656;25.586;2023-12-14T04:13:49;93918.20;;;10.35;64.83
80568;BME280;69922;45.656;25.586;2023-12-14T04:14:58;93915.31;;;10.31;65.49
80568;BME280;69922;45.656;25.586;2023-12-14T04:16:05;93910.88;;;10.29;65.73
80568;BME280;69922;45.656;25.586;2023-12-14T04:17:12;93909.98;;;10.25;65.66
80568;BME280;69922;45.656;25.586;2023-12-14T04:18:20;93914.04;;;10.21;65.92
80568;BME280;69922;45.656;25.586;2023-12-14T04:19:27;93919.48;;;10.18;66.07
80568;BME280;69922;45.656;25.586;2023-12-14T04:20:33;93918.98;;;10.14;66.51
80568;BME280;69922;45.656;25.586;2023-12-14T04:21:40;93920.87;;;10.11;66.53
80568;BME280;69922;45.656;25.586;2023-12-14T04:22:47;93917.14;;;10.09;67.07
80568;BME280;69922;45.656;25.586;2023-12-14T04:23:54;93911.88;;;10.06;66.96
80568;BME280;69922;45.656;25.586;2023-12-14T04:25:01;93907.55;;;10.04;67.27
80568;BME280;69922;45.656;25.586;2023-12-14T04:26:07;93909.90;;;10.02;67.29
80568;BME280;69922;45.656;25.586;2023-12-14T04:27:16;93911.02;;;10.00;67.21
80568;BME280;69922;45.656;25.586;2023-12-14T04:28:22;93912.30;;;9.98;66.99
80568;BME280;69922;45.656;25.586;2023-12-14T04:29:29;93918.67;;;9.97;67.34
80568;BME280;69922;45.656;25.586;2023-12-14T04:30:35;93920.51;;;9.97;67.34
80568;BME280;69922;45.656;25.586;2023-12-14T04:31:42;93918.29;;;9.95;67.21
80568;BME280;69922;45.656;25.586;2023-12-14T04:32:48;93921.41;;;9.95;67.65
80568;BME280;69922;45.656;25.586;2023-12-14T04:33:55;93923.09;;;9.94;67.54
80568;BME280;69922;45.656;25.586;2023-12-14T04:35:02;93924.71;;;9.93;67.71
80568;BME280;69922;45.656;25.586;2023-12-14T04:36:10;93926.40;;;9.92;67.32
80568;BME280;69922;45.656;25.586;2023-12-14T04:37:16;93930.98;;;9.91;67.64
80568;BME280;69922;45.656;25.586;2023-12-14T04:38:23;93929.56;;;9.91;67.70
80568;BME280;69922;45.656;25.586;2023-12-14T04:39:30;93924.27;;;9.91;67.99
80568;BME280;69922;45.656;25.586;2023-12-14T04:40:37;93920.04;;;9.90;67.61
80568;BME280;69922;45.656;25.586;2023-12-14T04:41:47;93918.30;;;9.90;67.85
80568;BME280;69922;45.656;25.586;2023-12-14T04:42:55;93916.69;;;9.90;67.63
80568;BME280;69922;45.656;25.586;2023-12-14T04:44:01;93909.81;;;9.89;67.96
80568;BME280;69922;45.656;25.586;2023-12-14T04:45:10;93907.52;;;9.88;68.04
80568;BME280;69922;45.656;25.586;2023-12-14T04:46:18;93904.12;;;9.86;68.38
80568;BME280;69922;45.656;25.586;2023-12-14T04:47:24;93906.31;;;9.84;68.71
80568;BME280;69922;45.656;25.586;2023-12-14T04:48:31;93908.48;;;9.81;69.10
80568;BME280;69922;45.656;25.586;2023-12-14T04:49:38;93908.84;;;9.77;69.18
80568;BME280;69922;45.656;25.586;2023-12-14T04:50:44;93910.00;;;9.74;69.00
80568;BME280;69922;45.656;25.586;2023-12-14T04:51:51;93915.30;;;9.71;69.55
80568;BME280;69922;45.656;25.586;2023-12-14T04:52:57;93924.64;;;9.68;70.07
80568;BME280;69922;45.656;25.586;2023-12-14T04:54:04;93924.00;;;9.65;69.59
80568;BME280;69922;45.656;25.586;2023-12-14T04:55:11;93918.75;;;9.63;70.02
80568;BME280;69922;45.656;25.586;2023-12-14T04:56:17;93909.58;;;9.61;69.98
80568;BME280;69922;45.656;25.586;2023-12-14T04:57:24;93910.59;;;9.59;70.08
80568;BME280;69922;45.656;25.586;2023-12-14T04:58:31;93911.78;;;9.59;69.91
80568;BME280;69922;45.656;25.586;2023-12-14T04:59:38;93915.89;;;9.58;69.99
80568;BME280;69922;45.656;25.586;2023-12-14T05:00:47;93917.26;;;9.57;70.59
80568;BME280;69922;45.656;25.586;2023-12-14T05:01:54;93913.96;;;9.57;70.79
80568;BME280;69922;45.656;25.586;2023-12-14T05:03:01;93903.56;;;9.55;70.82
80568;BME280;69922;45.656;25.586;2023-12-14T05:04:08;93904.55;;;9.54;70.43
80568;BME280;69922;45.656;25.586;2023-12-14T05:05:15;93906.98;;;9.52;70.57
80568;BME280;69922;45.656;25.586;2023-12-14T05:06:21;93916.91;;;9.51;70.64
80568;BME280;69922;45.656;25.586;2023-12-14T05:07:28;93916.98;;;9.51;70.16
80568;BME280;69922;45.656;25.586;2023-12-14T05:08:36;93913.14;;;9.49;70.82
80568;BME280;69922;45.656;25.586;2023-12-14T05:09:43;93907.14;;;9.49;70.99
80568;BME280;69922;45.656;25.586;2023-12-14T05:10:50;93896.03;;;9.48;70.75
80568;BME280;69922;45.656;25.586;2023-12-14T05:11:57;93890.20;;;9.48;70.68
80568;BME280;69922;45.656;25.586;2023-12-14T05:13:04;93895.57;;;9.47;70.46
80568;BME280;69922;45.656;25.586;2023-12-14T05:14:11;93893.80;;;9.45;70.60
80568;BME280;69922;45.656;25.586;2023-12-14T05:15:18;93900.27;;;9.46;70.72
80568;BME280;69922;45.656;25.586;2023-12-14T05:16:25;93904.29;;;9.45;70.89
80568;BME280;69922;45.656;25.586;2023-12-14T05:17:33;93908.81;;;9.45;70.84
80568;BME280;69922;45.656;25.586;2023-12-14T05:18:43;93907.63;;;9.45;70.53
80568;BME280;69922;45.656;25.586;2023-12-14T05:19:50;93905.47;;;9.46;70.80
80568;BME280;69922;45.656;25.586;2023-12-14T05:20:57;93896.13;;;9.46;70.79
80568;BME280;69922;45.656;25.586;2023-12-14T05:22:05;93894.09;;;9.45;70.53
80568;BME280;69922;45.656;25.586;2023-12-14T05:23:11;93898.53;;;9.46;70.75
80568;BME280;69922;45.656;25.586;2023-12-14T05:24:18;93896.98;;;9.45;70.83
80568;BME280;69922;45.656;25.586;2023-12-14T05:25:24;93899.27;;;9.44;70.94
80568;BME280;69922;45.656;25.586;2023-12-14T05:26:31;93896.52;;;9.42;71.04
80568;BME280;69922;45.656;25.586;2023-12-14T05:27:37;93901.27;;;9.40;71.00
80568;BME280;69922;45.656;25.586;2023-12-14T05:28:44;93902.35;;;9.39;71.11
80568;BME280;69922;45.656;25.586;2023-12-14T05:29:51;93906.20;;;9.38;71.03
80568;BME280;69922;45.656;25.586;2023-12-14T05:30:57;93907.23;;;9.37;71.01
80568;BME280;69922;45.656;25.586;2023-12-14T05:32:05;93912.22;;;9.37;71.07
80568;BME280;69922;45.656;25.586;2023-12-14T05:33:12;93919.27;;;9.36;71.21
80568;BME280;69922;45.656;25.586;2023-12-14T05:34:19;93916.92;;;9.35;71.43
80568;BME280;69922;45.656;25.586;2023-12-14T05:35:25;93909.59;;;9.35;71.24
80568;BME280;69922;45.656;25.586;2023-12-14T05:36:32;93909.98;;;9.34;71.07
80568;BME280;69922;45.656;25.586;2023-12-14T05:37:40;93906.24;;;9.34;71.04
80568;BME280;69922;45.656;25.586;2023-12-14T05:38:47;93909.20;;;9.35;71.32
80568;BME280;69922;45.656;25.586;2023-12-14T05:39:53;93909.59;;;9.35;71.23
80568;BME280;69922;45.656;25.586;2023-12-14T05:41:00;93912.05;;;9.33;71.25
80568;BME280;69922;45.656;25.586;2023-12-14T05:42:06;93909.46;;;9.33;71.27
80568;BME280;69922;45.656;25.586;2023-12-14T05:43:13;93906.08;;;9.32;71.13
80568;BME280;69922;45.656;25.586;2023-12-14T05:44:19;93902.36;;;9.32;71.28
80568;BME280;69922;45.656;25.586;2023-12-14T05:45:26;93899.16;;;9.32;71.03
80568;BME280;69922;45.656;25.586;2023-12-14T05:46:33;93897.24;;;9.33;71.04
80568;BME280;69922;45.656;25.586;2023-12-14T05:47:40;93894.90;;;9.33;71.24
80568;BME280;69922;45.656;25.586;2023-12-14T05:48:48;93898.34;;;9.33;71.75
80568;BME280;69922;45.656;25.586;2023-12-14T05:49:55;93902.52;;;9.32;71.66
80568;BME280;69922;45.656;25.586;2023-12-14T05:51:02;93906.57;;;9.32;72.01
80568;BME280;69922;45.656;25.586;2023-12-14T05:52:09;93905.84;;;9.31;72.34
80568;BME280;69922;45.656;25.586;2023-12-14T05:53:15;93903.32;;;9.30;72.42
80568;BME280;69922;45.656;25.586;2023-12-14T05:54:22;93905.41;;;9.30;72.24
80568;BME280;69922;45.656;25.586;2023-12-14T05:55:28;93906.73;;;9.30;72.49
80568;BME280;69922;45.656;25.586;2023-12-14T05:56:35;93905.48;;;9.30;72.67
80568;BME280;69922;45.656;25.586;2023-12-14T05:57:45;93905.08;;;9.29;72.85
80568;BME280;69922;45.656;25.586;2023-12-14T05:58:52;93900.52;;;9.31;73.17
80568;BME280;69922;45.656;25.586;2023-12-14T05:59:59;93899.02;;;9.32;72.85
80568;BME280;69922;45.656;25.586;2023-12-14T06:01:06;93894.19;;;9.32;72.70
80568;BME280;69922;45.656;25.586;2023-12-14T06:02:13;93896.27;;;9.32;72.67
80568;BME280;69922;45.656;25.586;2023-12-14T06:03:20;93900.80;;;9.32;73.10
80568;BME280;69922;45.656;25.586;2023-12-14T06:04:27;93907.27;;;9.32;73.18
80568;BME280;69922;45.656;25.586;2023-12-14T06:05:33;93908.30;;;9.33;73.68
80568;BME280;69922;45.656;25.586;2023-12-14T06:06:41;93907.52;;;9.36;73.29
80568;BME280;69922;45.656;25.586;2023-12-14T06:07:47;93908.55;;;9.39;73.56
80568;BME280;69922;45.656;25.586;2023-12-14T06:08:54;93905.45;;;9.45;74.09
80568;BME280;69922;45.656;25.586;2023-12-14T06:10:00;93899.36;;;9.50;73.43
80568;BME280;69922;45.656;25.586;2023-12-14T06:11:07;93901.49;;;9.53;73.38
80568;BME280;69922;45.656;25.586;2023-12-14T06:12:13;93902.81;;;9.56;73.23
80568;BME280;69922;45.656;25.586;2023-12-14T06:13:20;93905.63;;;9.57;72.90
80568;BME280;69922;45.656;25.586;2023-12-14T06:14:28;93911.11;;;9.58;72.87
80568;BME280;69922;45.656;25.586;2023-12-14T06:15:35;93916.13;;;9.59;73.39
80568;BME280;69922;45.656;25.586;2023-12-14T06:16:41;93913.14;;;9.60;73.39
80568;BME280;69922;45.656;25.586;2023-12-14T06:17:48;93909.34;;;9.61;73.19
80568;BME280;69922;45.656;25.586;2023-12-14T06:18:56;93907.17;;;9.62;72.95
80568;BME280;69922;45.656;25.586;2023-12-14T06:20:03;93910.58;;;9.63;73.07
80568;BME280;69922;45.656;25.586;2023-12-14T06:21:12;93912.39;;;9.64;73.16
80568;BME280;69922;45.656;25.586;2023-12-14T06:22:19;93912.27;;;9.68;75.17
80568;BME280;69922;45.656;25.586;2023-12-14T06:23:26;93915.09;;;9.78;74.41
80568;BME280;69922;45.656;25.586;2023-12-14T06:24:33;93916.04;;;9.84;73.47
80568;BME280;69922;45.656;25.586;2023-12-14T06:25:39;93922.41;;;9.86;73.27
80568;BME280;69922;45.656;25.586;2023-12-14T06:26:46;93927.40;;;9.86;73.10
80568;BME280;69922;45.656;25.586;2023-12-14T06:27:52;93932.48;;;9.87;72.92
80568;BME280;69922;45.656;25.586;2023-12-14T06:28:59;93932.66;;;9.87;72.94
80568;BME280;69922;45.656;25.586;2023-12-14T06:30:07;93929.94;;;9.88;72.81
80568;BME280;69922;45.656;25.586;2023-12-14T06:31:17;93928.45;;;9.88;72.66
80568;BME280;69922;45.656;25.586;2023-12-14T06:32:24;93927.30;;;9.88;72.51
80568;BME280;69922;45.656;25.586;2023-12-14T06:33:30;93924.17;;;9.88;72.38
80568;BME280;69922;45.656;25.586;2023-12-14T06:34:37;93920.98;;;9.88;72.36
80568;BME280;69922;45.656;25.586;2023-12-14T06:35:44;93921.95;;;9.89;72.35
80568;BME280;69922;45.656;25.586;2023-12-14T06:36:51;93919.77;;;9.89;72.76
80568;BME280;69922;45.656;25.586;2023-12-14T06:37:57;93917.02;;;9.91;72.51
80568;BME280;69922;45.656;25.586;2023-12-14T06:39:04;93919.84;;;9.92;72.72
80568;BME280;69922;45.656;25.586;2023-12-14T06:40:12;93919.34;;;9.93;72.73
80568;BME280;69922;45.656;25.586;2023-12-14T06:41:22;93913.73;;;9.93;72.33
80568;BME280;69922;45.656;25.586;2023-12-14T06:42:29;93914.02;;;9.92;72.23
80568;BME280;69922;45.656;25.586;2023-12-14T06:43:37;93918.09;;;9.91;72.11
80568;BME280;69922;45.656;25.586;2023-12-14T06:44:47;93916.39;;;9.88;72.08
80568;BME280;69922;45.656;25.586;2023-12-14T06:45:53;93916.23;;;9.85;72.44
80568;BME280;69922;45.656;25.586;2023-12-14T06:47:00;93919.52;;;9.83;72.40
80568;BME280;69922;45.656;25.586;2023-12-14T06:48:07;93922.67;;;9.82;72.99
80568;BME280;69922;45.656;25.586;2023-12-14T06:49:13;93924.30;;;9.81;72.91